sensor_id;sensor_type;location;lat;lon;timestamp;P1;durP1;ratioP1;P2;durP2;ratioP2
60169;SDS011;46042;49.444;6.862;2022-12-29T00:02:26;5.38;;;2.63;;
60169;SDS011;46042;49.444;6.862;2022-12-29T00:04:53;3.90;;;2.30;;
60169;SDS011;46042;49.444;6.862;2022-12-29T00:07:19;8.80;;;2.67;;
60169;SDS011;46042;49.444;6.862;2022-12-29T00:09:46;6.55;;;2.45;;
60169;SDS011;46042;49.444;6.862;2022-12-29T00:12:13;3.45;;;2.63;;
60169;SDS011;46042;49.444;6.862;2022-12-29T00:14:39;4.55;;;2.72;;
60169;SDS011;46042;49.444;6.862;2022-12-29T00:17:25;7.68;;;2.83;;
60169;SDS011;46042;49.444;6.862;2022-12-29T00:19:51;6.57;;;2.97;;
60169;SDS011;46042;49.444;6.862;2022-12-29T00:22:36;9.65;;;2.70;;
60169;SDS011;46042;49.444;6.862;2022-12-29T00:25:21;5.90;;;2.60;;
60169;SDS011;46042;49.444;6.862;2022-12-29T00:28:10;7.53;;;2.90;;
60169;SDS011;46042;49.444;6.862;2022-12-29T00:30:59;4.88;;;2.90;;
60169;SDS011;46042;49.444;6.862;2022-12-29T00:33:45;10.68;;;2.92;;
60169;SDS011;46042;49.444;6.862;2022-12-29T00:36:31;8.07;;;2.72;;
60169;SDS011;46042;49.444;6.862;2022-12-29T00:39:04;9.13;;;3.08;;
60169;SDS011;46042;49.444;6.862;2022-12-29T00:41:53;7.28;;;3.10;;
60169;SDS011;46042;49.444;6.862;2022-12-29T00:44:40;4.20;;;2.40;;
60169;SDS011;46042;49.444;6.862;2022-12-29T00:47:06;3.45;;;2.10;;
60169;SDS011;46042;49.444;6.862;2022-12-29T00:49:33;4.50;;;2.92;;
60169;SDS011;46042;49.444;6.862;2022-12-29T00:52:01;2.90;;;2.30;;
60169;SDS011;46042;49.444;6.862;2022-12-29T00:54:34;7.88;;;2.85;;
60169;SDS011;46042;49.444;6.862;2022-12-29T00:57:02;5.82;;;2.50;;
60169;SDS011;46042;49.444;6.862;2022-12-29T00:59:30;8.95;;;2.45;;
60169;SDS011;46042;49.444;6.862;2022-12-29T01:01:57;6.13;;;2.13;;
60169;SDS011;46042;49.444;6.862;2022-12-29T01:04:24;4.85;;;2.20;;
60169;SDS011;46042;49.444;6.862;2022-12-29T01:06:52;3.13;;;1.80;;
60169;SDS011;46042;49.444;6.862;2022-12-29T01:09:19;4.07;;;1.95;;
60169;SDS011;46042;49.444;6.862;2022-12-29T01:12:05;4.32;;;2.15;;
60169;SDS011;46042;49.444;6.862;2022-12-29T01:14:33;4.60;;;2.00;;
60169;SDS011;46042;49.444;6.862;2022-12-29T01:17:00;5.60;;;2.28;;
60169;SDS011;46042;49.444;6.862;2022-12-29T01:19:26;3.22;;;2.13;;
60169;SDS011;46042;49.444;6.862;2022-12-29T01:21:53;4.75;;;2.10;;
60169;SDS011;46042;49.444;6.862;2022-12-29T01:24:20;5.05;;;2.30;;
60169;SDS011;46042;49.444;6.862;2022-12-29T01:26:47;5.97;;;2.22;;
60169;SDS011;46042;49.444;6.862;2022-12-29T01:29:15;4.32;;;2.03;;
60169;SDS011;46042;49.444;6.862;2022-12-29T01:31:42;7.88;;;2.38;;
60169;SDS011;46042;49.444;6.862;2022-12-29T01:34:09;6.18;;;1.70;;
60169;SDS011;46042;49.444;6.862;2022-12-29T01:36:35;2.83;;;2.28;;
60169;SDS011;46042;49.444;6.862;2022-12-29T01:39:02;4.05;;;1.70;;
60169;SDS011;46042;49.444;6.862;2022-12-29T01:41:29;2.63;;;1.60;;
60169;SDS011;46042;49.444;6.862;2022-12-29T01:43:56;6.72;;;1.92;;
60169;SDS011;46042;49.444;6.862;2022-12-29T01:51:44;10.57;;;2.20;;
60169;SDS011;46042;49.444;6.862;2022-12-29T01:54:58;5.38;;;2.85;;
60169;SDS011;46042;49.444;6.862;2022-12-29T01:57:16;5.18;;;1.98;;
60169;SDS011;46042;49.444;6.862;2022-12-29T01:59:52;4.32;;;1.55;;
60169;SDS011;46042;49.444;6.862;2022-12-29T02:02:22;2.75;;;1.70;;
60169;SDS011;46042;49.444;6.862;2022-12-29T02:04:50;4.30;;;2.03;;
60169;SDS011;46042;49.444;6.862;2022-12-29T02:07:20;2.90;;;1.77;;
60169;SDS011;46042;49.444;6.862;2022-12-29T02:09:49;4.93;;;1.80;;
60169;SDS011;46042;49.444;6.862;2022-12-29T02:12:18;5.72;;;1.80;;
60169;SDS011;46042;49.444;6.862;2022-12-29T02:14:46;5.07;;;1.67;;
60169;SDS011;46042;49.444;6.862;2022-12-29T02:28:41;6.85;;;1.73;;
60169;SDS011;46042;49.444;6.862;2022-12-29T02:37:03;7.35;;;1.98;;
60169;SDS011;46042;49.444;6.862;2022-12-29T02:45:33;4.15;;;2.20;;
60169;SDS011;46042;49.444;6.862;2022-12-29T02:51:06;5.10;;;2.47;;
60169;SDS011;46042;49.444;6.862;2022-12-29T02:53:38;3.67;;;1.95;;
60169;SDS011;46042;49.444;6.862;2022-12-29T02:56:24;5.30;;;1.92;;
60169;SDS011;46042;49.444;6.862;2022-12-29T02:58:51;3.53;;;2.22;;
60169;SDS011;46042;49.444;6.862;2022-12-29T03:04:33;6.50;;;2.17;;
60169;SDS011;46042;49.444;6.862;2022-12-29T03:07:09;3.53;;;2.17;;
60169;SDS011;46042;49.444;6.862;2022-12-29T03:10:06;4.30;;;2.50;;
60169;SDS011;46042;49.444;6.862;2022-12-29T03:15:32;4.25;;;1.98;;
60169;SDS011;46042;49.444;6.862;2022-12-29T03:21:11;3.67;;;2.20;;
60169;SDS011;46042;49.444;6.862;2022-12-29T03:23:41;4.35;;;2.08;;
60169;SDS011;46042;49.444;6.862;2022-12-29T03:26:11;7.05;;;2.53;;
60169;SDS011;46042;49.444;6.862;2022-12-29T03:28:41;2.85;;;2.22;;
60169;SDS011;46042;49.444;6.862;2022-12-29T03:31:14;6.22;;;2.60;;
60169;SDS011;46042;49.444;6.862;2022-12-29T03:33:43;6.57;;;2.15;;
60169;SDS011;46042;49.444;6.862;2022-12-29T03:36:12;5.78;;;2.47;;
60169;SDS011;46042;49.444;6.862;2022-12-29T03:38:49;5.28;;;3.13;;
60169;SDS011;46042;49.444;6.862;2022-12-29T03:41:22;4.85;;;2.17;;
60169;SDS011;46042;49.444;6.862;2022-12-29T03:43:54;4.15;;;2.30;;
60169;SDS011;46042;49.444;6.862;2022-12-29T03:46:23;3.45;;;1.90;;
60169;SDS011;46042;49.444;6.862;2022-12-29T03:48:49;7.07;;;3.15;;
60169;SDS011;46042;49.444;6.862;2022-12-29T03:51:16;2.85;;;2.10;;
60169;SDS011;46042;49.444;6.862;2022-12-29T03:53:44;4.03;;;2.35;;
60169;SDS011;46042;49.444;6.862;2022-12-29T03:56:10;4.95;;;2.20;;
60169;SDS011;46042;49.444;6.862;2022-12-29T03:58:37;5.93;;;2.25;;
60169;SDS011;46042;49.444;6.862;2022-12-29T04:01:04;5.40;;;2.17;;
60169;SDS011;46042;49.444;6.862;2022-12-29T04:03:30;5.13;;;2.00;;
60169;SDS011;46042;49.444;6.862;2022-12-29T04:05:57;6.47;;;2.60;;
60169;SDS011;46042;49.444;6.862;2022-12-29T04:08:24;3.17;;;2.13;;
60169;SDS011;46042;49.444;6.862;2022-12-29T04:10:50;9.90;;;2.33;;
60169;SDS011;46042;49.444;6.862;2022-12-29T04:13:17;5.43;;;2.45;;
60169;SDS011;46042;49.444;6.862;2022-12-29T04:15:45;3.38;;;2.05;;
60169;SDS011;46042;49.444;6.862;2022-12-29T04:18:12;4.78;;;2.13;;
60169;SDS011;46042;49.444;6.862;2022-12-29T04:20:39;4.35;;;1.88;;
60169;SDS011;46042;49.444;6.862;2022-12-29T04:23:25;5.20;;;2.75;;
60169;SDS011;46042;49.444;6.862;2022-12-29T04:25:52;4.45;;;2.40;;
60169;SDS011;46042;49.444;6.862;2022-12-29T04:28:19;4.97;;;2.00;;
60169;SDS011;46042;49.444;6.862;2022-12-29T04:30:46;6.57;;;2.47;;
60169;SDS011;46042;49.444;6.862;2022-12-29T04:33:14;4.38;;;2.10;;
60169;SDS011;46042;49.444;6.862;2022-12-29T04:35:44;8.95;;;2.50;;
60169;SDS011;46042;49.444;6.862;2022-12-29T04:38:11;7.38;;;2.05;;
60169;SDS011;46042;49.444;6.862;2022-12-29T04:40:38;5.60;;;2.60;;
60169;SDS011;46042;49.444;6.862;2022-12-29T04:43:06;7.20;;;2.17;;
60169;SDS011;46042;49.444;6.862;2022-12-29T04:45:33;6.38;;;2.10;;
60169;SDS011;46042;49.444;6.862;2022-12-29T04:47:59;3.85;;;2.15;;
60169;SDS011;46042;49.444;6.862;2022-12-29T04:50:26;6.93;;;2.10;;
60169;SDS011;46042;49.444;6.862;2022-12-29T04:52:53;6.28;;;2.30;;
60169;SDS011;46042;49.444;6.862;2022-12-29T04:55:20;3.25;;;2.17;;
60169;SDS011;46042;49.444;6.862;2022-12-29T04:57:47;6.00;;;2.33;;
60169;SDS011;46042;49.444;6.862;2022-12-29T05:00:13;3.15;;;2.28;;
60169;SDS011;46042;49.444;6.862;2022-12-29T05:02:40;7.35;;;2.20;;
60169;SDS011;46042;49.444;6.862;2022-12-29T05:05:07;4.05;;;1.65;;
60169;SDS011;46042;49.444;6.862;2022-12-29T05:07:34;6.40;;;2.47;;
60169;SDS011;46042;49.444;6.862;2022-12-29T05:10:02;5.30;;;1.98;;
60169;SDS011;46042;49.444;6.862;2022-12-29T05:12:32;6.53;;;2.00;;
60169;SDS011;46042;49.444;6.862;2022-12-29T05:15:00;6.45;;;2.17;;
60169;SDS011;46042;49.444;6.862;2022-12-29T05:17:29;4.03;;;2.00;;
60169;SDS011;46042;49.444;6.862;2022-12-29T05:19:56;5.90;;;2.13;;
60169;SDS011;46042;49.444;6.862;2022-12-29T05:22:22;8.82;;;2.13;;
60169;SDS011;46042;49.444;6.862;2022-12-29T05:24:49;6.88;;;2.08;;
60169;SDS011;46042;49.444;6.862;2022-12-29T05:27:16;2.25;;;1.60;;
60169;SDS011;46042;49.444;6.862;2022-12-29T05:29:43;6.07;;;2.22;;
60169;SDS011;46042;49.444;6.862;2022-12-29T05:32:10;3.35;;;1.85;;
60169;SDS011;46042;49.444;6.862;2022-12-29T05:34:37;8.90;;;2.55;;
60169;SDS011;46042;49.444;6.862;2022-12-29T05:37:04;4.75;;;1.90;;
60169;SDS011;46042;49.444;6.862;2022-12-29T05:39:31;3.78;;;2.03;;
60169;SDS011;46042;49.444;6.862;2022-12-29T05:41:58;3.45;;;1.98;;
60169;SDS011;46042;49.444;6.862;2022-12-29T05:44:24;4.93;;;2.00;;
60169;SDS011;46042;49.444;6.862;2022-12-29T05:46:51;2.63;;;1.90;;
60169;SDS011;46042;49.444;6.862;2022-12-29T05:49:17;3.13;;;2.03;;
60169;SDS011;46042;49.444;6.862;2022-12-29T05:51:44;3.13;;;1.80;;
60169;SDS011;46042;49.444;6.862;2022-12-29T05:54:11;6.53;;;2.00;;
60169;SDS011;46042;49.444;6.862;2022-12-29T05:56:37;4.25;;;2.08;;
60169;SDS011;46042;49.444;6.862;2022-12-29T05:59:04;8.10;;;2.10;;
60169;SDS011;46042;49.444;6.862;2022-12-29T06:01:30;6.28;;;1.73;;
60169;SDS011;46042;49.444;6.862;2022-12-29T06:03:58;4.57;;;1.95;;
60169;SDS011;46042;49.444;6.862;2022-12-29T06:06:24;4.95;;;2.10;;
60169;SDS011;46042;49.444;6.862;2022-12-29T06:08:51;10.43;;;2.60;;
60169;SDS011;46042;49.444;6.862;2022-12-29T06:11:18;5.53;;;2.17;;
60169;SDS011;46042;49.444;6.862;2022-12-29T06:13:44;3.97;;;2.03;;
60169;SDS011;46042;49.444;6.862;2022-12-29T06:16:11;5.50;;;2.20;;
60169;SDS011;46042;49.444;6.862;2022-12-29T06:18:38;7.50;;;2.42;;
60169;SDS011;46042;49.444;6.862;2022-12-29T06:21:04;7.65;;;2.60;;
60169;SDS011;46042;49.444;6.862;2022-12-29T06:23:32;5.50;;;2.70;;
60169;SDS011;46042;49.444;6.862;2022-12-29T06:25:59;10.75;;;2.88;;
60169;SDS011;46042;49.444;6.862;2022-12-29T06:28:25;5.15;;;2.53;;
60169;SDS011;46042;49.444;6.862;2022-12-29T06:30:52;9.25;;;3.22;;
60169;SDS011;46042;49.444;6.862;2022-12-29T06:33:19;7.80;;;2.38;;
60169;SDS011;46042;49.444;6.862;2022-12-29T06:35:45;6.03;;;2.40;;
60169;SDS011;46042;49.444;6.862;2022-12-29T06:38:12;8.30;;;3.05;;
60169;SDS011;46042;49.444;6.862;2022-12-29T06:40:39;4.57;;;2.75;;
60169;SDS011;46042;49.444;6.862;2022-12-29T06:43:07;4.88;;;2.58;;
60169;SDS011;46042;49.444;6.862;2022-12-29T06:45:34;2.97;;;2.17;;
60169;SDS011;46042;49.444;6.862;2022-12-29T06:48:00;8.52;;;2.58;;
60169;SDS011;46042;49.444;6.862;2022-12-29T06:50:27;8.05;;;3.58;;
60169;SDS011;46042;49.444;6.862;2022-12-29T06:52:54;7.80;;;2.85;;
60169;SDS011;46042;49.444;6.862;2022-12-29T06:55:20;4.80;;;2.50;;
60169;SDS011;46042;49.444;6.862;2022-12-29T06:57:47;3.92;;;2.63;;
60169;SDS011;46042;49.444;6.862;2022-12-29T07:00:14;8.90;;;2.70;;
60169;SDS011;46042;49.444;6.862;2022-12-29T07:02:48;10.60;;;2.50;;
60169;SDS011;46042;49.444;6.862;2022-12-29T07:05:17;7.85;;;2.60;;
60169;SDS011;46042;49.444;6.862;2022-12-29T07:07:43;4.35;;;2.55;;
60169;SDS011;46042;49.444;6.862;2022-12-29T07:10:10;8.52;;;2.55;;
60169;SDS011;46042;49.444;6.862;2022-12-29T07:12:38;5.93;;;2.97;;
60169;SDS011;46042;49.444;6.862;2022-12-29T07:15:06;8.73;;;2.95;;
60169;SDS011;46042;49.444;6.862;2022-12-29T07:17:33;7.75;;;2.95;;
60169;SDS011;46042;49.444;6.862;2022-12-29T07:19:59;6.57;;;3.00;;
60169;SDS011;46042;49.444;6.862;2022-12-29T07:22:26;9.35;;;3.60;;
60169;SDS011;46042;49.444;6.862;2022-12-29T07:24:53;6.00;;;3.20;;
60169;SDS011;46042;49.444;6.862;2022-12-29T07:27:19;5.47;;;2.55;;
60169;SDS011;46042;49.444;6.862;2022-12-29T07:29:48;6.20;;;2.95;;
60169;SDS011;46042;49.444;6.862;2022-12-29T07:32:15;8.18;;;3.95;;
60169;SDS011;46042;49.444;6.862;2022-12-29T07:34:42;7.20;;;3.17;;
60169;SDS011;46042;49.444;6.862;2022-12-29T07:37:11;12.73;;;3.20;;
60169;SDS011;46042;49.444;6.862;2022-12-29T07:39:38;5.10;;;2.60;;
60169;SDS011;46042;49.444;6.862;2022-12-29T07:42:05;5.20;;;2.88;;
60169;SDS011;46042;49.444;6.862;2022-12-29T07:44:32;6.25;;;2.90;;
60169;SDS011;46042;49.444;6.862;2022-12-29T07:46:58;4.72;;;2.80;;
60169;SDS011;46042;49.444;6.862;2022-12-29T07:49:25;5.55;;;2.78;;
60169;SDS011;46042;49.444;6.862;2022-12-29T07:51:52;5.43;;;2.90;;
60169;SDS011;46042;49.444;6.862;2022-12-29T07:54:20;7.15;;;3.10;;
60169;SDS011;46042;49.444;6.862;2022-12-29T07:56:49;8.18;;;3.25;;
60169;SDS011;46042;49.444;6.862;2022-12-29T07:59:16;7.30;;;2.70;;
60169;SDS011;46042;49.444;6.862;2022-12-29T08:01:42;4.07;;;2.47;;
60169;SDS011;46042;49.444;6.862;2022-12-29T08:04:10;8.20;;;3.10;;
60169;SDS011;46042;49.444;6.862;2022-12-29T08:06:37;6.00;;;2.80;;
60169;SDS011;46042;49.444;6.862;2022-12-29T08:09:04;4.85;;;2.85;;
60169;SDS011;46042;49.444;6.862;2022-12-29T08:11:43;5.22;;;3.22;;
60169;SDS011;46042;49.444;6.862;2022-12-29T08:14:10;5.68;;;2.50;;
60169;SDS011;46042;49.444;6.862;2022-12-29T08:16:37;4.97;;;2.95;;
60169;SDS011;46042;49.444;6.862;2022-12-29T08:19:04;5.03;;;2.35;;
60169;SDS011;46042;49.444;6.862;2022-12-29T08:21:31;6.72;;;3.13;;
60169;SDS011;46042;49.444;6.862;2022-12-29T08:23:58;3.47;;;2.28;;
60169;SDS011;46042;49.444;6.862;2022-12-29T08:26:25;4.80;;;2.50;;
60169;SDS011;46042;49.444;6.862;2022-12-29T08:28:52;9.57;;;3.60;;
60169;SDS011;46042;49.444;6.862;2022-12-29T08:31:20;7.95;;;2.65;;
60169;SDS011;46042;49.444;6.862;2022-12-29T08:33:48;8.10;;;2.65;;
60169;SDS011;46042;49.444;6.862;2022-12-29T08:36:14;6.72;;;3.38;;
60169;SDS011;46042;49.444;6.862;2022-12-29T08:38:41;10.18;;;3.20;;
60169;SDS011;46042;49.444;6.862;2022-12-29T08:41:08;11.80;;;3.10;;
60169;SDS011;46042;49.444;6.862;2022-12-29T08:43:35;6.80;;;2.80;;
60169;SDS011;46042;49.444;6.862;2022-12-29T08:46:01;7.35;;;2.80;;
60169;SDS011;46042;49.444;6.862;2022-12-29T08:48:28;7.97;;;2.80;;
60169;SDS011;46042;49.444;6.862;2022-12-29T08:50:55;7.93;;;3.78;;
60169;SDS011;46042;49.444;6.862;2022-12-29T08:53:22;8.65;;;3.10;;
60169;SDS011;46042;49.444;6.862;2022-12-29T08:55:54;4.82;;;2.47;;
60169;SDS011;46042;49.444;6.862;2022-12-29T09:00:57;5.72;;;1.83;;
60169;SDS011;46042;49.444;6.862;2022-12-29T09:03:24;4.88;;;1.98;;
60169;SDS011;46042;49.444;6.862;2022-12-29T09:06:11;4.97;;;2.20;;
60169;SDS011;46042;49.444;6.862;2022-12-29T09:08:38;4.85;;;2.35;;
60169;SDS011;46042;49.444;6.862;2022-12-29T09:11:06;5.80;;;2.53;;
60169;SDS011;46042;49.444;6.862;2022-12-29T09:13:34;3.17;;;2.00;;
60169;SDS011;46042;49.444;6.862;2022-12-29T09:16:02;3.70;;;1.92;;
60169;SDS011;46042;49.444;6.862;2022-12-29T09:18:29;3.03;;;1.85;;
60169;SDS011;46042;49.444;6.862;2022-12-29T09:20:57;2.95;;;1.77;;
60169;SDS011;46042;49.444;6.862;2022-12-29T09:23:26;2.17;;;1.13;;
60169;SDS011;46042;49.444;6.862;2022-12-29T09:25:53;2.58;;;1.73;;
60169;SDS011;46042;49.444;6.862;2022-12-29T09:28:20;5.30;;;1.80;;
60169;SDS011;46042;49.444;6.862;2022-12-29T09:30:49;6.03;;;1.80;;
60169;SDS011;46042;49.444;6.862;2022-12-29T09:33:17;4.90;;;1.77;;
60169;SDS011;46042;49.444;6.862;2022-12-29T09:35:45;3.30;;;1.50;;
60169;SDS011;46042;49.444;6.862;2022-12-29T09:38:18;2.63;;;1.33;;
60169;SDS011;46042;49.444;6.862;2022-12-29T09:40:49;2.85;;;1.23;;
60169;SDS011;46042;49.444;6.862;2022-12-29T09:46:15;2.38;;;1.30;;
60169;SDS011;46042;49.444;6.862;2022-12-29T09:48:50;1.55;;;1.30;;
60169;SDS011;46042;49.444;6.862;2022-12-29T09:51:35;2.08;;;1.40;;
60169;SDS011;46042;49.444;6.862;2022-12-29T09:54:19;2.58;;;1.20;;
60169;SDS011;46042;49.444;6.862;2022-12-29T09:57:15;2.50;;;1.40;;
60169;SDS011;46042;49.444;6.862;2022-12-29T10:04:53;5.30;;;1.63;;
60169;SDS011;46042;49.444;6.862;2022-12-29T10:07:34;4.35;;;1.48;;
60169;SDS011;46042;49.444;6.862;2022-12-29T10:16:15;3.47;;;2.05;;
60169;SDS011;46042;49.444;6.862;2022-12-29T10:21:22;2.97;;;2.05;;
60169;SDS011;46042;49.444;6.862;2022-12-29T10:24:02;4.53;;;2.30;;
60169;SDS011;46042;49.444;6.862;2022-12-29T10:26:36;3.40;;;1.92;;
60169;SDS011;46042;49.444;6.862;2022-12-29T10:31:49;3.67;;;1.95;;
60169;SDS011;46042;49.444;6.862;2022-12-29T10:34:26;4.20;;;2.38;;
60169;SDS011;46042;49.444;6.862;2022-12-29T10:37:02;5.78;;;2.42;;
60169;SDS011;46042;49.444;6.862;2022-12-29T10:39:46;9.15;;;2.35;;
60169;SDS011;46042;49.444;6.862;2022-12-29T10:44:46;3.85;;;1.65;;
60169;SDS011;46042;49.444;6.862;2022-12-29T10:47:15;3.15;;;1.75;;
60169;SDS011;46042;49.444;6.862;2022-12-29T10:49:48;6.80;;;1.67;;
60169;SDS011;46042;49.444;6.862;2022-12-29T10:52:16;7.00;;;2.50;;
60169;SDS011;46042;49.444;6.862;2022-12-29T10:55:21;5.57;;;2.33;;
60169;SDS011;46042;49.444;6.862;2022-12-29T10:57:42;5.97;;;2.20;;
60169;SDS011;46042;49.444;6.862;2022-12-29T11:00:16;3.78;;;1.85;;
60169;SDS011;46042;49.444;6.862;2022-12-29T11:02:53;8.98;;;1.85;;
60169;SDS011;46042;49.444;6.862;2022-12-29T11:08:22;4.82;;;1.80;;
60169;SDS011;46042;49.444;6.862;2022-12-29T11:11:02;3.97;;;1.77;;
60169;SDS011;46042;49.444;6.862;2022-12-29T11:14:18;8.25;;;2.78;;
60169;SDS011;46042;49.444;6.862;2022-12-29T11:16:28;5.47;;;2.03;;
60169;SDS011;46042;49.444;6.862;2022-12-29T11:19:00;8.35;;;2.08;;
60169;SDS011;46042;49.444;6.862;2022-12-29T11:21:31;3.95;;;2.28;;
60169;SDS011;46042;49.444;6.862;2022-12-29T11:26:46;5.53;;;1.90;;
60169;SDS011;46042;49.444;6.862;2022-12-29T11:29:17;5.07;;;1.90;;
60169;SDS011;46042;49.444;6.862;2022-12-29T11:31:50;5.68;;;2.17;;
60169;SDS011;46042;49.444;6.862;2022-12-29T11:34:23;7.03;;;2.17;;
60169;SDS011;46042;49.444;6.862;2022-12-29T11:39:34;4.47;;;2.08;;
60169;SDS011;46042;49.444;6.862;2022-12-29T11:42:12;4.70;;;1.60;;
60169;SDS011;46042;49.444;6.862;2022-12-29T11:44:47;4.80;;;1.80;;
60169;SDS011;46042;49.444;6.862;2022-12-29T11:47:23;9.23;;;4.50;;
60169;SDS011;46042;49.444;6.862;2022-12-29T11:49:56;12.13;;;3.45;;
60169;SDS011;46042;49.444;6.862;2022-12-29T11:52:29;3.13;;;1.38;;
60169;SDS011;46042;49.444;6.862;2022-12-29T11:55:02;4.38;;;1.65;;
60169;SDS011;46042;49.444;6.862;2022-12-29T11:57:33;3.97;;;1.65;;
60169;SDS011;46042;49.444;6.862;2022-12-29T12:00:23;4.43;;;1.70;;
60169;SDS011;46042;49.444;6.862;2022-12-29T12:10:55;6.28;;;2.00;;
60169;SDS011;46042;49.444;6.862;2022-12-29T12:13:38;11.02;;;3.92;;
60169;SDS011;46042;49.444;6.862;2022-12-29T12:16:13;5.00;;;1.95;;
60169;SDS011;46042;49.444;6.862;2022-12-29T12:18:47;5.38;;;1.45;;
60169;SDS011;46042;49.444;6.862;2022-12-29T12:21:20;3.70;;;1.20;;
60169;SDS011;46042;49.444;6.862;2022-12-29T12:24:15;2.70;;;1.23;;
60169;SDS011;46042;49.444;6.862;2022-12-29T12:27:07;4.72;;;1.70;;
60169;SDS011;46042;49.444;6.862;2022-12-29T12:30:00;2.58;;;1.30;;
60169;SDS011;46042;49.444;6.862;2022-12-29T12:35:13;4.35;;;1.63;;
60169;SDS011;46042;49.444;6.862;2022-12-29T12:40:42;2.38;;;1.30;;
60169;SDS011;46042;49.444;6.862;2022-12-29T12:49:40;1.85;;;1.25;;
60169;SDS011;46042;49.444;6.862;2022-12-29T13:03:18;2.78;;;1.60;;
60169;SDS011;46042;49.444;6.862;2022-12-29T13:06:12;4.03;;;1.52;;
60169;SDS011;46042;49.444;6.862;2022-12-29T13:08:59;2.53;;;1.48;;
60169;SDS011;46042;49.444;6.862;2022-12-29T13:14:29;5.40;;;1.77;;
60169;SDS011;46042;49.444;6.862;2022-12-29T13:17:06;5.78;;;1.90;;
60169;SDS011;46042;49.444;6.862;2022-12-29T13:19:59;4.17;;;1.50;;
60169;SDS011;46042;49.444;6.862;2022-12-29T13:28:25;4.80;;;1.50;;
60169;SDS011;46042;49.444;6.862;2022-12-29T13:32:17;2.05;;;1.40;;
60169;SDS011;46042;49.444;6.862;2022-12-29T13:37:20;4.82;;;1.73;;
60169;SDS011;46042;49.444;6.862;2022-12-29T13:39:56;6.20;;;1.80;;
60169;SDS011;46042;49.444;6.862;2022-12-29T13:42:27;5.85;;;1.80;;
60169;SDS011;46042;49.444;6.862;2022-12-29T13:45:10;4.93;;;1.38;;
60169;SDS011;46042;49.444;6.862;2022-12-29T13:47:44;10.52;;;1.98;;
60169;SDS011;46042;49.444;6.862;2022-12-29T13:50:19;5.53;;;2.15;;
60169;SDS011;46042;49.444;6.862;2022-12-29T14:00:14;7.82;;;2.63;;
60169;SDS011;46042;49.444;6.862;2022-12-29T14:07:44;5.38;;;1.63;;
60169;SDS011;46042;49.444;6.862;2022-12-29T14:15:45;8.30;;;1.95;;
60169;SDS011;46042;49.444;6.862;2022-12-29T14:18:21;9.48;;;2.67;;
60169;SDS011;46042;49.444;6.862;2022-12-29T14:23:44;5.75;;;1.98;;
60169;SDS011;46042;49.444;6.862;2022-12-29T14:26:17;6.18;;;1.70;;
60169;SDS011;46042;49.444;6.862;2022-12-29T14:29:15;5.07;;;2.10;;
60169;SDS011;46042;49.444;6.862;2022-12-29T14:32:02;7.03;;;2.75;;
60169;SDS011;46042;49.444;6.862;2022-12-29T14:34:55;9.73;;;2.40;;
60169;SDS011;46042;49.444;6.862;2022-12-29T14:37:25;5.47;;;2.08;;
60169;SDS011;46042;49.444;6.862;2022-12-29T14:42:46;5.00;;;2.10;;
60169;SDS011;46042;49.444;6.862;2022-12-29T14:47:41;4.55;;;2.03;;
60169;SDS011;46042;49.444;6.862;2022-12-29T14:52:46;7.85;;;1.73;;
60169;SDS011;46042;49.444;6.862;2022-12-29T15:01:24;12.85;;;2.83;;
60169;SDS011;46042;49.444;6.862;2022-12-29T15:04:17;9.27;;;2.90;;
60169;SDS011;46042;49.444;6.862;2022-12-29T15:06:46;8.65;;;2.45;;
60169;SDS011;46042;49.444;6.862;2022-12-29T15:11:51;11.93;;;2.42;;
60169;SDS011;46042;49.444;6.862;2022-12-29T15:16:55;8.85;;;2.28;;
60169;SDS011;46042;49.444;6.862;2022-12-29T15:19:23;14.20;;;2.55;;
60169;SDS011;46042;49.444;6.862;2022-12-29T15:21:50;7.97;;;2.50;;
60169;SDS011;46042;49.444;6.862;2022-12-29T15:24:19;6.32;;;2.13;;
60169;SDS011;46042;49.444;6.862;2022-12-29T15:26:47;8.27;;;2.55;;
60169;SDS011;46042;49.444;6.862;2022-12-29T15:34:51;8.48;;;2.25;;
60169;SDS011;46042;49.444;6.862;2022-12-29T15:37:27;6.70;;;1.75;;
60169;SDS011;46042;49.444;6.862;2022-12-29T15:40:03;7.78;;;1.85;;
60169;SDS011;46042;49.444;6.862;2022-12-29T15:45:10;7.68;;;3.17;;
60169;SDS011;46042;49.444;6.862;2022-12-29T15:47:38;14.00;;;1.80;;
60169;SDS011;46042;49.444;6.862;2022-12-29T15:50:09;9.02;;;3.05;;
60169;SDS011;46042;49.444;6.862;2022-12-29T15:52:51;3.58;;;1.63;;
60169;SDS011;46042;49.444;6.862;2022-12-29T15:55:39;5.65;;;1.65;;
60169;SDS011;46042;49.444;6.862;2022-12-29T15:58:18;6.43;;;1.95;;
60169;SDS011;46042;49.444;6.862;2022-12-29T16:00:55;10.68;;;2.58;;
60169;SDS011;46042;49.444;6.862;2022-12-29T16:03:24;9.95;;;2.15;;
60169;SDS011;46042;49.444;6.862;2022-12-29T16:05:58;9.57;;;2.35;;
60169;SDS011;46042;49.444;6.862;2022-12-29T16:08:35;8.68;;;1.88;;
60169;SDS011;46042;49.444;6.862;2022-12-29T16:13:51;14.65;;;4.57;;
60169;SDS011;46042;49.444;6.862;2022-12-29T16:16:22;60.58;;;11.57;;
60169;SDS011;46042;49.444;6.862;2022-12-29T16:18:49;43.03;;;9.20;;
60169;SDS011;46042;49.444;6.862;2022-12-29T16:21:27;27.25;;;5.80;;
60169;SDS011;46042;49.444;6.862;2022-12-29T16:24:00;13.48;;;3.60;;
60169;SDS011;46042;49.444;6.862;2022-12-29T16:26:35;11.43;;;3.40;;
60169;SDS011;46042;49.444;6.862;2022-12-29T16:29:04;13.60;;;3.03;;
60169;SDS011;46042;49.444;6.862;2022-12-29T16:34:21;9.68;;;3.03;;
60169;SDS011;46042;49.444;6.862;2022-12-29T16:36:57;18.85;;;5.22;;
60169;SDS011;46042;49.444;6.862;2022-12-29T16:39:30;19.55;;;6.93;;
60169;SDS011;46042;49.444;6.862;2022-12-29T16:42:00;14.48;;;4.20;;
60169;SDS011;46042;49.444;6.862;2022-12-29T16:44:28;8.90;;;3.63;;
60169;SDS011;46042;49.444;6.862;2022-12-29T16:46:58;9.32;;;3.20;;
60169;SDS011;46042;49.444;6.862;2022-12-29T16:49:29;7.68;;;3.20;;
60169;SDS011;46042;49.444;6.862;2022-12-29T16:51:58;9.40;;;3.00;;
60169;SDS011;46042;49.444;6.862;2022-12-29T16:54:28;10.18;;;3.00;;
60169;SDS011;46042;49.444;6.862;2022-12-29T16:56:59;12.05;;;3.10;;
60169;SDS011;46042;49.444;6.862;2022-12-29T16:59:28;5.38;;;2.28;;
60169;SDS011;46042;49.444;6.862;2022-12-29T17:02:00;13.00;;;3.65;;
60169;SDS011;46042;49.444;6.862;2022-12-29T17:04:31;11.48;;;2.72;;
60169;SDS011;46042;49.444;6.862;2022-12-29T17:06:58;17.92;;;3.83;;
60169;SDS011;46042;49.444;6.862;2022-12-29T17:09:26;16.52;;;3.50;;
60169;SDS011;46042;49.444;6.862;2022-12-29T17:11:54;7.07;;;2.13;;
60169;SDS011;46042;49.444;6.862;2022-12-29T17:19:48;12.90;;;2.92;;
60169;SDS011;46042;49.444;6.862;2022-12-29T17:22:21;13.40;;;3.25;;
60169;SDS011;46042;49.444;6.862;2022-12-29T17:24:53;10.13;;;3.10;;
60169;SDS011;46042;49.444;6.862;2022-12-29T17:27:22;8.45;;;2.78;;
60169;SDS011;46042;49.444;6.862;2022-12-29T17:29:55;6.70;;;2.42;;
60169;SDS011;46042;49.444;6.862;2022-12-29T17:32:25;14.65;;;2.92;;
60169;SDS011;46042;49.444;6.862;2022-12-29T17:34:52;8.88;;;2.97;;
60169;SDS011;46042;49.444;6.862;2022-12-29T17:39:59;11.88;;;3.00;;
60169;SDS011;46042;49.444;6.862;2022-12-29T17:42:26;11.27;;;3.05;;
60169;SDS011;46042;49.444;6.862;2022-12-29T17:44:53;4.63;;;2.10;;
60169;SDS011;46042;49.444;6.862;2022-12-29T17:47:20;6.40;;;2.65;;
60169;SDS011;46042;49.444;6.862;2022-12-29T17:49:46;20.30;;;3.47;;
60169;SDS011;46042;49.444;6.862;2022-12-29T17:52:13;11.07;;;2.80;;
60169;SDS011;46042;49.444;6.862;2022-12-29T17:54:45;11.95;;;2.60;;
60169;SDS011;46042;49.444;6.862;2022-12-29T17:57:16;12.18;;;2.72;;
60169;SDS011;46042;49.444;6.862;2022-12-29T17:59:45;7.50;;;2.50;;
60169;SDS011;46042;49.444;6.862;2022-12-29T18:04:49;9.60;;;3.00;;
60169;SDS011;46042;49.444;6.862;2022-12-29T18:07:15;9.18;;;2.60;;
60169;SDS011;46042;49.444;6.862;2022-12-29T18:09:42;9.13;;;3.13;;
60169;SDS011;46042;49.444;6.862;2022-12-29T18:12:24;7.95;;;2.50;;